Погода Лукиничина 2 недели

Смоленская область, Россия

23 июля-04 августа
  • 23июля
    Сегодня
    +13°
    +24°
    Ясно и безоблачно
    ВремяПогодаТемператураВлажностьДавлениеВетер, м/сВероятность осадков
    00:00Ясно и безоблачно+16°C93 %743 мм2.5 м/с1 %
    03:00Ясно и безоблачно+15°C97 %743 мм2.4 м/с2 %
    06:00Небольшая облачность+15°C96 %744 мм3.2 м/с2 %
    09:00Практически безоблачно+20°C73 %744 мм5.0 м/с7 %
    12:00Практически безоблачно+23°C54 %744 мм4.5 м/с21 %
    15:00Ясно и безоблачно+25°C39 %744 мм3.7 м/с18 %
    18:00Ясно и безоблачно+24°C37 %743 мм3.9 м/с9 %
    21:00Ясно и безоблачно+19°C55 %744 мм2.4 м/с2 %
  • 24июля
    Среда
    +12°
    +25°
    Облачно с прояснениями
    ВремяПогодаТемператураВлажностьДавлениеВетер, м/сВероятность осадков
    00:00Облачно с прояснениями+16°C63 %744 мм2.7 м/с2 %
    03:00Небольшая облачность+17°C69 %744 мм2.5 м/с2 %
    06:00Практически безоблачно+16°C71 %744 мм2.6 м/с2 %
    09:00Ясно и безоблачно+21°C57 %744 мм2.4 м/с2 %
    12:00Ясно и безоблачно+23°C42 %744 мм3.5 м/с2 %
    15:00Облачно с прояснениями+24°C35 %743 мм3.1 м/с2 %
    18:00Облачно с прояснениями+24°C35 %743 мм3.2 м/с2 %
    21:00Ясно и безоблачно+19°C54 %743 мм2.2 м/с2 %
  • 25июля
    Четверг
    +14°
    +26°
    Облачно с прояснениями
    ВремяПогодаТемператураВлажностьДавлениеВетер, м/сВероятность осадков
    00:00Ясно и безоблачно+15°C61 %743 мм2.6 м/с2 %
    03:00Ясно и безоблачно+13°C74 %742 мм2.1 м/с2 %
    06:00Небольшая облачность+14°C78 %742 мм1.1 м/с2 %
    09:00Ясно и безоблачно+21°C52 %743 мм1.2 м/с2 %
    12:00Пасмурно, сплошная облачность+25°C36 %742 мм2.3 м/с2 %
    15:00Облачно с прояснениями+25°C35 %742 мм1.7 м/с2 %
    18:00Облачно с прояснениями+26°C34 %742 мм1.5 м/с7 %
    21:00Облачно с прояснениями+21°C54 %742 мм1.5 м/с3 %
  • 26июля
    Пятница
    +14°
    +27°
    Облачно с прояснениями
    ВремяПогодаТемператураВлажностьДавлениеВетер, м/сВероятность осадков
    00:00Ясно и безоблачно+16°C70 %742 мм1.9 м/с2 %
    03:00Ясно и безоблачно+15°C83 %742 мм1.9 м/с2 %
    06:00Ясно и безоблачно+15°C86 %743 мм1.7 м/с2 %
    09:00Ясно и безоблачно+22°C61 %744 мм2.0 м/с3 %
    12:00Ясно и безоблачно+25°C49 %744 мм1.9 м/с10 %
    15:00Облачно с прояснениями+27°C43 %745 мм2.2 м/с16 %
    18:00Небольшая облачность+25°C45 %745 мм1.8 м/с23 %
    21:00Практически безоблачно+21°C67 %746 мм2.0 м/с15 %
Мы используем cookies
Соглашаюсь